CAW220 FALE-FAOR
Flight info
| Callsign | CAW220 |
|---|---|
| Flight time | 0h 53m |
| Altitude | 30000 |
| Route | GEPOM UZ29 UNPOM UNPOM1B |
| Aircraft | B738/M-SDE2E3FGHIRWXY/LB1 |
Departure
| Time | 2026-05-08 20:13 |
|---|---|
| Airport | King Shaka International Airport (FALE) |
Arrival
| Time | 2026-05-08 21:06 |
|---|---|
| Airport | O.R. Tambo International Airport (FAOR) |
| Time | Latitude | Longitude | Altitude | Speed | Heading |
|---|---|---|---|---|---|
| 2026-05-08 19:42 | -29.61935 | 31.10603 | 295 ft | 0 kts | 308° |
| 2026-05-08 19:55 | -29.61937 | 31.10606 | 295 ft | 3 kts | 308° |
| 2026-05-08 19:56 | -29.61954 | 31.10631 | 300 ft | 4 kts | 302° |
| 2026-05-08 19:56 | -29.61961 | 31.10654 | 295 ft | 4 kts | 241° |
| 2026-05-08 19:56 | -29.61948 | 31.10677 | 299 ft | 4 kts | 227° |
| 2026-05-08 19:56 | -29.61937 | 31.10688 | 295 ft | 0 kts | 217° |
| 2026-05-08 20:06 | -29.61939 | 31.10687 | 295 ft | 2 kts | 217° |
| 2026-05-08 20:06 | -29.61966 | 31.10663 | 300 ft | 7 kts | 217° |
| 2026-05-08 20:06 | -29.62017 | 31.10618 | 299 ft | 11 kts | 217° |
| 2026-05-08 20:07 | -29.62091 | 31.10554 | 295 ft | 15 kts | 216° |
| 2026-05-08 20:07 | -29.62185 | 31.10477 | 295 ft | 18 kts | 216° |
| 2026-05-08 20:07 | -29.62259 | 31.10441 | 299 ft | 10 kts | 166° |
| 2026-05-08 20:07 | -29.62301 | 31.10489 | 300 ft | 10 kts | 128° |
| 2026-05-08 20:08 | -29.62318 | 31.10514 | 297 ft | 3 kts | 127° |
| 2026-05-08 20:08 | -29.62329 | 31.10532 | 300 ft | 5 kts | 127° |
| 2026-05-08 20:08 | -29.62338 | 31.10545 | 295 ft | 0 kts | 126° |
| 2026-05-08 20:08 | -29.62344 | 31.10555 | 300 ft | 4 kts | 126° |
| 2026-05-08 20:09 | -29.62368 | 31.10593 | 299 ft | 8 kts | 126° |
| 2026-05-08 20:09 | -29.62401 | 31.10645 | 299 ft | 5 kts | 126° |
| 2026-05-08 20:09 | -29.62405 | 31.10651 | 294 ft | 0 kts | 129° |
| 2026-05-08 20:09 | -29.62406 | 31.10653 | 294 ft | 1 kts | 128° |
| 2026-05-08 20:10 | -29.62427 | 31.10683 | 293 ft | 8 kts | 127° |
| 2026-05-08 20:10 | -29.62456 | 31.10729 | 296 ft | 5 kts | 118° |
| 2026-05-08 20:10 | -29.62470 | 31.10773 | 299 ft | 7 kts | 97° |
| 2026-05-08 20:10 | -29.62446 | 31.10817 | 298 ft | 7 kts | 32° |
| 2026-05-08 20:11 | -29.62415 | 31.10857 | 297 ft | 7 kts | 42° |
| 2026-05-08 20:11 | -29.62400 | 31.10871 | 297 ft | 0 kts | 37° |
| 2026-05-08 20:12 | -29.62383 | 31.10886 | 299 ft | 18 kts | 37° |
| 2026-05-08 20:12 | -29.62103 | 31.11129 | 300 ft | 87 kts | 37° |
| 2026-05-08 20:12 | -29.61436 | 31.11705 | 301 ft | 150 kts | 37° |
| 2026-05-08 20:12 | -29.60464 | 31.12542 | 487 ft | 190 kts | 37° |
| 2026-05-08 20:13 | -29.59424 | 31.13453 | 1479 ft | 186 kts | 38° |
| 2026-05-08 20:13 | -29.58472 | 31.14310 | 2358 ft | 170 kts | 38° |
| 2026-05-08 20:13 | -29.57532 | 31.15170 | 2665 ft | 175 kts | 37° |
| 2026-05-08 20:13 | -29.56479 | 31.15859 | 2979 ft | 176 kts | 7° |
| 2026-05-08 20:14 | -29.55296 | 31.15571 | 3356 ft | 183 kts | 327° |
| 2026-05-08 20:14 | -29.54291 | 31.14541 | 3843 ft | 210 kts | 315° |
| 2026-05-08 20:14 | -29.53248 | 31.13195 | 4128 ft | 242 kts | 314° |
| 2026-05-08 20:14 | -29.52094 | 31.11672 | 4740 ft | 258 kts | 313° |
| 2026-05-08 20:15 | -29.50912 | 31.10093 | 5671 ft | 262 kts | 312° |
| 2026-05-08 20:15 | -29.49736 | 31.08524 | 6619 ft | 264 kts | 313° |
| 2026-05-08 20:15 | -29.48527 | 31.06923 | 7523 ft | 267 kts | 312° |
| 2026-05-08 20:15 | -29.47304 | 31.05307 | 8457 ft | 269 kts | 312° |
| 2026-05-08 20:16 | -29.46073 | 31.03690 | 9324 ft | 272 kts | 311° |
| 2026-05-08 20:16 | -29.44819 | 31.02039 | 10138 ft | 276 kts | 310° |
| 2026-05-08 20:16 | -29.43525 | 31.00333 | 10556 ft | 297 kts | 310° |
| 2026-05-08 20:16 | -29.42109 | 30.98476 | 10734 ft | 322 kts | 311° |
| 2026-05-08 20:17 | -29.40595 | 30.96501 | 11184 ft | 336 kts | 310° |
| 2026-05-08 20:17 | -29.39038 | 30.94462 | 11963 ft | 341 kts | 310° |
| 2026-05-08 20:17 | -29.37508 | 30.92393 | 12842 ft | 341 kts | 309° |
| 2026-05-08 20:17 | -29.35932 | 30.90356 | 13626 ft | 344 kts | 310° |
| 2026-05-08 20:18 | -29.34340 | 30.88322 | 14398 ft | 347 kts | 310° |
| 2026-05-08 20:18 | -29.32737 | 30.86260 | 15252 ft | 346 kts | 309° |
| 2026-05-08 20:18 | -29.31141 | 30.84178 | 16046 ft | 350 kts | 309° |
| 2026-05-08 20:18 | -29.29536 | 30.82086 | 16817 ft | 349 kts | 310° |
| 2026-05-08 20:19 | -29.27916 | 30.80000 | 17667 ft | 349 kts | 308° |
| 2026-05-08 20:19 | -29.26355 | 30.77851 | 18317 ft | 353 kts | 308° |
| 2026-05-08 20:19 | -29.24710 | 30.75733 | 18815 ft | 359 kts | 309° |
| 2026-05-08 20:19 | -29.23068 | 30.73605 | 19559 ft | 353 kts | 308° |
| 2026-05-08 20:20 | -29.21484 | 30.71478 | 20080 ft | 357 kts | 306° |
| 2026-05-08 20:20 | -29.19926 | 30.69259 | 20776 ft | 358 kts | 305° |
| 2026-05-08 20:20 | -29.18401 | 30.67011 | 21632 ft | 356 kts | 304° |
| 2026-05-08 20:20 | -29.16875 | 30.64780 | 22357 ft | 356 kts | 305° |
| 2026-05-08 20:21 | -29.15313 | 30.62563 | 22922 ft | 359 kts | 305° |
| 2026-05-08 20:21 | -29.13740 | 30.60341 | 23419 ft | 361 kts | 305° |
| 2026-05-08 20:21 | -29.12026 | 30.58201 | 23928 ft | 369 kts | 314° |
| 2026-05-08 20:21 | -29.09912 | 30.56517 | 24511 ft | 369 kts | 320° |
| 2026-05-08 20:22 | -29.07775 | 30.54919 | 25261 ft | 364 kts | 320° |
| 2026-05-08 20:22 | -29.05691 | 30.53364 | 25926 ft | 361 kts | 319° |
| 2026-05-08 20:22 | -29.03586 | 30.51811 | 26389 ft | 361 kts | 321° |
| 2026-05-08 20:22 | -29.02138 | 30.50773 | 26680 ft | 365 kts | 320° |
| 2026-05-08 20:23 | -28.99379 | 30.48661 | 27518 ft | 358 kts | 320° |
| 2026-05-08 20:23 | -28.97287 | 30.47103 | 28047 ft | 360 kts | 319° |
| 2026-05-08 20:23 | -28.95200 | 30.45544 | 28699 ft | 356 kts | 319° |
| 2026-05-08 20:23 | -28.93151 | 30.43973 | 29385 ft | 355 kts | 319° |
| 2026-05-08 20:24 | -28.91103 | 30.42420 | 29952 ft | 352 kts | 320° |
| 2026-05-08 20:24 | -28.89065 | 30.40920 | 30011 ft | 354 kts | 320° |
| 2026-05-08 20:24 | -28.84912 | 30.37828 | 30094 ft | 353 kts | 317° |
| 2026-05-08 20:25 | -28.80812 | 30.34669 | 30119 ft | 359 kts | 320° |
| 2026-05-08 20:25 | -28.76601 | 30.31561 | 30095 ft | 359 kts | 319° |
| 2026-05-08 20:26 | -28.72466 | 30.28488 | 30101 ft | 353 kts | 320° |
| 2026-05-08 20:26 | -28.68439 | 30.25455 | 30104 ft | 347 kts | 319° |
| 2026-05-08 20:27 | -28.64410 | 30.22422 | 30077 ft | 350 kts | 319° |
| 2026-05-08 20:27 | -28.60271 | 30.19334 | 30121 ft | 356 kts | 320° |
| 2026-05-08 20:28 | -28.56156 | 30.16232 | 30101 ft | 354 kts | 318° |
| 2026-05-08 20:28 | -28.52062 | 30.13146 | 30085 ft | 357 kts | 320° |
| 2026-05-08 20:29 | -28.47951 | 30.10037 | 30108 ft | 360 kts | 320° |
| 2026-05-08 20:29 | -28.43732 | 30.07006 | 30098 ft | 356 kts | 320° |
| 2026-05-08 20:30 | -28.39636 | 30.03937 | 30111 ft | 352 kts | 318° |
| 2026-05-08 20:30 | -28.35504 | 30.00875 | 30119 ft | 354 kts | 320° |
| 2026-05-08 20:31 | -28.31385 | 29.97843 | 30101 ft | 353 kts | 319° |
| 2026-05-08 20:31 | -28.27303 | 29.94785 | 30131 ft | 350 kts | 319° |
| 2026-05-08 20:32 | -28.23221 | 29.91756 | 30132 ft | 351 kts | 319° |
| 2026-05-08 20:32 | -28.19171 | 29.88729 | 30106 ft | 351 kts | 320° |
| 2026-05-08 20:33 | -28.15035 | 29.85695 | 30087 ft | 357 kts | 319° |
| 2026-05-08 20:33 | -28.10912 | 29.82607 | 30159 ft | 357 kts | 320° |
| 2026-05-08 20:34 | -28.06705 | 29.79547 | 30118 ft | 360 kts | 319° |
| 2026-05-08 20:35 | -28.00474 | 29.74950 | 30135 ft | 356 kts | 319° |
| 2026-05-08 20:35 | -27.96335 | 29.71899 | 30159 ft | 355 kts | 320° |
| 2026-05-08 20:36 | -27.92187 | 29.68845 | 30174 ft | 356 kts | 319° |
| 2026-05-08 20:36 | -27.88043 | 29.65795 | 30155 ft | 355 kts | 319° |
| 2026-05-08 20:37 | -27.83938 | 29.62778 | 30164 ft | 355 kts | 320° |
| 2026-05-08 20:37 | -27.79797 | 29.59743 | 30174 ft | 355 kts | 320° |
| 2026-05-08 20:38 | -27.75659 | 29.56719 | 30192 ft | 354 kts | 320° |
| 2026-05-08 20:38 | -27.71517 | 29.53693 | 30188 ft | 354 kts | 319° |
| 2026-05-08 20:39 | -27.67373 | 29.50668 | 30196 ft | 355 kts | 320° |
| 2026-05-08 20:39 | -27.63242 | 29.47654 | 30187 ft | 357 kts | 320° |
| 2026-05-08 20:40 | -27.59063 | 29.44609 | 30177 ft | 358 kts | 320° |
| 2026-05-08 20:40 | -27.54872 | 29.41558 | 30192 ft | 359 kts | 320° |
| 2026-05-08 20:41 | -27.50668 | 29.38500 | 30193 ft | 360 kts | 320° |
| 2026-05-08 20:41 | -27.46481 | 29.35458 | 30197 ft | 361 kts | 320° |
| 2026-05-08 20:42 | -27.42268 | 29.32399 | 30202 ft | 360 kts | 320° |
| 2026-05-08 20:42 | -27.38065 | 29.29351 | 30198 ft | 359 kts | 320° |
| 2026-05-08 20:43 | -27.33873 | 29.26312 | 30207 ft | 358 kts | 320° |
| 2026-05-08 20:43 | -27.29725 | 29.23307 | 30212 ft | 357 kts | 320° |
| 2026-05-08 20:44 | -27.25545 | 29.20283 | 30212 ft | 357 kts | 320° |
| 2026-05-08 20:44 | -27.21360 | 29.17255 | 30207 ft | 359 kts | 320° |
| 2026-05-08 20:45 | -27.17003 | 29.14425 | 30218 ft | 364 kts | 324° |
| 2026-05-08 20:45 | -27.12542 | 29.11821 | 30193 ft | 364 kts | 324° |
| 2026-05-08 20:46 | -27.08063 | 29.09211 | 30197 ft | 358 kts | 324° |
| 2026-05-08 20:46 | -27.05886 | 29.07942 | 30094 ft | 349 kts | 324° |
| 2026-05-08 20:46 | -27.03754 | 29.06694 | 29873 ft | 341 kts | 323° |
| 2026-05-08 20:46 | -27.01661 | 29.05465 | 29501 ft | 338 kts | 323° |
| 2026-05-08 20:47 | -26.99595 | 29.04249 | 29164 ft | 334 kts | 323° |
| 2026-05-08 20:47 | -26.97547 | 29.03042 | 28787 ft | 331 kts | 323° |
| 2026-05-08 20:47 | -26.95545 | 29.01864 | 28424 ft | 328 kts | 323° |
| 2026-05-08 20:47 | -26.93529 | 29.00678 | 28074 ft | 326 kts | 323° |
| 2026-05-08 20:48 | -26.91533 | 28.99505 | 27716 ft | 323 kts | 323° |
| 2026-05-08 20:48 | -26.89549 | 28.98338 | 27335 ft | 321 kts | 323° |
| 2026-05-08 20:48 | -26.87583 | 28.97184 | 27002 ft | 318 kts | 323° |
| 2026-05-08 20:48 | -26.85629 | 28.96038 | 26661 ft | 316 kts | 323° |
| 2026-05-08 20:49 | -26.83688 | 28.94898 | 26337 ft | 314 kts | 323° |
| 2026-05-08 20:49 | -26.81760 | 28.93767 | 25996 ft | 312 kts | 323° |
| 2026-05-08 20:49 | -26.79838 | 28.92639 | 25658 ft | 311 kts | 323° |
| 2026-05-08 20:49 | -26.77925 | 28.91517 | 25317 ft | 310 kts | 323° |
| 2026-05-08 20:50 | -26.76045 | 28.90416 | 24994 ft | 309 kts | 323° |
| 2026-05-08 20:50 | -26.74144 | 28.89303 | 24664 ft | 308 kts | 323° |
| 2026-05-08 20:50 | -26.72247 | 28.88193 | 24307 ft | 308 kts | 323° |
| 2026-05-08 20:50 | -26.70357 | 28.87076 | 23979 ft | 307 kts | 321° |
| 2026-05-08 20:51 | -26.68570 | 28.85761 | 23403 ft | 321 kts | 322° |
| 2026-05-08 20:51 | -26.66477 | 28.84648 | 22948 ft | 337 kts | 328° |
| 2026-05-08 20:51 | -26.64329 | 28.83599 | 22574 ft | 336 kts | 328° |
| 2026-05-08 20:51 | -26.62206 | 28.82567 | 22315 ft | 330 kts | 328° |
| 2026-05-08 20:52 | -26.60149 | 28.81577 | 22058 ft | 324 kts | 328° |
| 2026-05-08 20:52 | -26.58094 | 28.80593 | 21800 ft | 319 kts | 328° |
| 2026-05-08 20:52 | -26.56066 | 28.79628 | 21545 ft | 315 kts | 329° |
| 2026-05-08 20:52 | -26.54052 | 28.78672 | 21287 ft | 313 kts | 329° |
| 2026-05-08 20:53 | -26.52053 | 28.77726 | 21043 ft | 312 kts | 329° |
| 2026-05-08 20:53 | -26.50045 | 28.76774 | 20606 ft | 316 kts | 329° |
| 2026-05-08 20:53 | -26.48012 | 28.75803 | 20193 ft | 320 kts | 329° |
| 2026-05-08 20:53 | -26.45967 | 28.74821 | 19761 ft | 321 kts | 329° |
| 2026-05-08 20:54 | -26.43920 | 28.73836 | 19349 ft | 321 kts | 329° |
| 2026-05-08 20:54 | -26.41865 | 28.72847 | 18919 ft | 322 kts | 329° |
| 2026-05-08 20:54 | -26.39839 | 28.71865 | 18512 ft | 322 kts | 329° |
| 2026-05-08 20:54 | -26.37779 | 28.70863 | 18046 ft | 323 kts | 329° |
| 2026-05-08 20:55 | -26.35721 | 28.69857 | 17576 ft | 323 kts | 329° |
| 2026-05-08 20:55 | -26.33666 | 28.68843 | 17123 ft | 323 kts | 329° |
| 2026-05-08 20:55 | -26.31612 | 28.67821 | 16665 ft | 323 kts | 329° |
| 2026-05-08 20:55 | -26.29560 | 28.66793 | 16223 ft | 323 kts | 329° |
| 2026-05-08 20:56 | -26.27528 | 28.65770 | 15786 ft | 318 kts | 329° |
| 2026-05-08 20:56 | -26.26201 | 28.65101 | 15494 ft | 314 kts | 329° |
| 2026-05-08 20:56 | -26.24440 | 28.63799 | 15023 ft | 297 kts | 306° |
| 2026-05-08 20:56 | -26.23553 | 28.61813 | 14603 ft | 285 kts | 278° |
| 2026-05-08 20:57 | -26.23840 | 28.58967 | 14078 ft | 280 kts | 257° |
| 2026-05-08 20:57 | -26.24407 | 28.56900 | 13612 ft | 278 kts | 255° |
| 2026-05-08 20:57 | -26.25001 | 28.54858 | 13145 ft | 276 kts | 254° |
| 2026-05-08 20:57 | -26.25594 | 28.52835 | 12684 ft | 273 kts | 254° |
| 2026-05-08 20:58 | -26.26183 | 28.50830 | 12234 ft | 272 kts | 254° |
| 2026-05-08 20:58 | -26.26569 | 28.49513 | 11949 ft | 270 kts | 254° |
| 2026-05-08 20:58 | -26.27150 | 28.47525 | 11499 ft | 270 kts | 254° |
| 2026-05-08 20:58 | -26.27730 | 28.45521 | 11077 ft | 274 kts | 254° |
| 2026-05-08 20:59 | -26.28313 | 28.43487 | 10649 ft | 277 kts | 254° |
| 2026-05-08 20:59 | -26.29089 | 28.40757 | 10093 ft | 281 kts | 254° |
| 2026-05-08 20:59 | -26.29673 | 28.38675 | 9620 ft | 283 kts | 254° |
| 2026-05-08 20:59 | -26.30260 | 28.36569 | 9164 ft | 286 kts | 254° |
| 2026-05-08 21:00 | -26.30649 | 28.35163 | 8860 ft | 288 kts | 254° |
| 2026-05-08 21:00 | -26.31234 | 28.33051 | 8416 ft | 283 kts | 254° |
| 2026-05-08 21:00 | -26.31798 | 28.31009 | 8259 ft | 267 kts | 254° |
| 2026-05-08 21:00 | -26.32325 | 28.29097 | 8230 ft | 250 kts | 254° |
| 2026-05-08 21:01 | -26.32819 | 28.27305 | 8249 ft | 237 kts | 254° |
| 2026-05-08 21:01 | -26.33304 | 28.25546 | 8241 ft | 238 kts | 254° |
| 2026-05-08 21:01 | -26.33783 | 28.23785 | 8233 ft | 237 kts | 257° |
| 2026-05-08 21:01 | -26.33746 | 28.21988 | 8227 ft | 234 kts | 292° |
| 2026-05-08 21:02 | -26.32711 | 28.20640 | 8222 ft | 231 kts | 330° |
| 2026-05-08 21:02 | -26.31202 | 28.20372 | 8227 ft | 216 kts | 8° |
| 2026-05-08 21:02 | -26.29803 | 28.20747 | 8204 ft | 199 kts | 8° |
| 2026-05-08 21:02 | -26.28481 | 28.21090 | 8009 ft | 195 kts | 11° |
| 2026-05-08 21:03 | -26.27172 | 28.21482 | 7756 ft | 193 kts | 12° |
| 2026-05-08 21:03 | -26.25923 | 28.21871 | 7492 ft | 184 kts | 11° |
| 2026-05-08 21:03 | -26.24716 | 28.22247 | 7280 ft | 177 kts | 11° |
| 2026-05-08 21:03 | -26.23570 | 28.22604 | 7109 ft | 164 kts | 11° |
| 2026-05-08 21:04 | -26.22489 | 28.22941 | 6850 ft | 158 kts | 11° |
| 2026-05-08 21:04 | -26.21431 | 28.23269 | 6654 ft | 159 kts | 11° |
| 2026-05-08 21:04 | -26.20369 | 28.23600 | 6405 ft | 158 kts | 12° |
| 2026-05-08 21:04 | -26.19312 | 28.23930 | 6146 ft | 157 kts | 13° |
| 2026-05-08 21:05 | -26.18260 | 28.24257 | 5922 ft | 157 kts | 14° |
| 2026-05-08 21:05 | -26.17212 | 28.24585 | 5706 ft | 156 kts | 15° |
| 2026-05-08 21:05 | -26.16170 | 28.24912 | 5540 ft | 154 kts | 14° |
| 2026-05-08 21:05 | -26.15234 | 28.25198 | 5512 ft | 121 kts | 15° |
| 2026-05-08 21:06 | -26.14565 | 28.25405 | 5505 ft | 79 kts | 15° |
| 2026-05-08 21:06 | -26.14315 | 28.25479 | 5509 ft | 13 kts | 13° |
| 2026-05-08 21:06 | -26.14253 | 28.25484 | 5510 ft | 9 kts | 356° |
| 2026-05-08 21:06 | -26.14175 | 28.25472 | 5511 ft | 13 kts | 351° |
| 2026-05-08 21:07 | -26.14085 | 28.25455 | 5510 ft | 13 kts | 351° |
| 2026-05-08 21:07 | -26.14007 | 28.25441 | 5509 ft | 7 kts | 350° |
| 2026-05-08 21:07 | -26.13938 | 28.25428 | 5509 ft | 10 kts | 350° |
| 2026-05-08 21:07 | -26.13930 | 28.25426 | 5509 ft | 0 kts | 347° |
| 2026-05-08 21:08 | -26.13928 | 28.25420 | 5509 ft | 2 kts | 287° |
| 2026-05-08 21:08 | -26.13948 | 28.25399 | 5509 ft | 8 kts | 215° |
| 2026-05-08 21:08 | -26.14009 | 28.25368 | 5510 ft | 11 kts | 197° |
| 2026-05-08 21:08 | -26.14096 | 28.25344 | 5511 ft | 15 kts | 194° |
| 2026-05-08 21:09 | -26.14213 | 28.25309 | 5508 ft | 19 kts | 196° |
| 2026-05-08 21:09 | -26.14331 | 28.25273 | 5509 ft | 15 kts | 195° |
| 2026-05-08 21:09 | -26.14422 | 28.25229 | 5510 ft | 14 kts | 230° |
| 2026-05-08 21:09 | -26.14403 | 28.25134 | 5513 ft | 14 kts | 314° |
| 2026-05-08 21:10 | -26.14337 | 28.25061 | 5528 ft | 13 kts | 316° |
| 2026-05-08 21:10 | -26.14268 | 28.24988 | 5530 ft | 16 kts | 315° |
| 2026-05-08 21:10 | -26.14174 | 28.24886 | 5532 ft | 22 kts | 315° |
| 2026-05-08 21:10 | -26.14055 | 28.24756 | 5530 ft | 24 kts | 315° |
| 2026-05-08 21:11 | -26.13942 | 28.24634 | 5536 ft | 22 kts | 315° |
| 2026-05-08 21:11 | -26.13838 | 28.24521 | 5533 ft | 20 kts | 315° |
| 2026-05-08 21:11 | -26.13744 | 28.24419 | 5540 ft | 17 kts | 316° |
| 2026-05-08 21:11 | -26.13656 | 28.24323 | 5538 ft | 19 kts | 315° |
| 2026-05-08 21:12 | -26.13560 | 28.24219 | 5542 ft | 21 kts | 315° |
| 2026-05-08 21:12 | -26.13468 | 28.24119 | 5546 ft | 14 kts | 316° |
| 2026-05-08 21:12 | -26.13401 | 28.24046 | 5548 ft | 13 kts | 315° |
| 2026-05-08 21:12 | -26.13341 | 28.23982 | 5549 ft | 6 kts | 315° |
| 2026-05-08 21:13 | -26.13339 | 28.23979 | 5548 ft | 0 kts | 315° |
| 2026-05-08 21:15 | -26.13338 | 28.23979 | 5548 ft | 0 kts | 315° |
| 2026-05-08 21:15 | -26.13324 | 28.23962 | 5547 ft | 6 kts | 314° |
| 2026-05-08 21:15 | -26.13281 | 28.23915 | 5545 ft | 11 kts | 317° |
| 2026-05-08 21:15 | -26.13214 | 28.23843 | 5544 ft | 15 kts | 316° |
| 2026-05-08 21:16 | -26.13144 | 28.23750 | 5546 ft | 16 kts | 286° |
| 2026-05-08 21:16 | -26.13130 | 28.23628 | 5544 ft | 16 kts | 276° |
| 2026-05-08 21:16 | -26.13117 | 28.23498 | 5545 ft | 15 kts | 278° |
| 2026-05-08 21:16 | -26.13142 | 28.23417 | 5546 ft | 12 kts | 206° |
| 2026-05-08 21:17 | -26.13233 | 28.23401 | 5550 ft | 14 kts | 185° |
| 2026-05-08 21:17 | -26.13333 | 28.23391 | 5547 ft | 15 kts | 186° |
| 2026-05-08 21:17 | -26.13431 | 28.23373 | 5548 ft | 14 kts | 189° |
| 2026-05-08 21:17 | -26.13525 | 28.23361 | 5548 ft | 14 kts | 186° |
| 2026-05-08 21:18 | -26.13587 | 28.23354 | 5546 ft | 5 kts | 188° |
| 2026-05-08 21:18 | -26.13601 | 28.23321 | 5546 ft | 5 kts | 267° |
| 2026-05-08 21:18 | -26.13598 | 28.23279 | 5551 ft | 2 kts | 276° |
| 2026-05-08 21:18 | -26.13597 | 28.23271 | 5546 ft | 1 kts | 275° |